Time;durP1;ratioP1;P1;durP2;ratioP2;P2;SDS_P1;SDS_P2;PMS_P1;PMS_P2;Temp;Humidity;BMP_temperature;BMP_pressure;BME280_temperature;BME280_humidity;BME280_pressure;Samples;Min_cycle;Max_cycle;Signal;HPM_P1;HPM_P2
2022/12/26 00:00:15;;;;;;;34.55;23.50;;;19.50;88.10;;;;;;1828720;78;21206;-72
2022/12/26 00:02:46;;;;;;;39.05;23.18;;;19.50;88.20;;;;;;1857725;75;21155;-72
2022/12/26 00:05:17;;;;;;;39.35;25.15;;;19.50;88.20;;;;;;1846224;76;21097;-70
2022/12/26 00:07:51;;;;;;;35.45;23.45;;;19.50;87.60;;;;;;1850581;77;21518;-71
2022/12/26 00:10:23;;;;;;;36.88;24.60;;;19.50;87.90;;;;;;1857176;76;21648;-73
2022/12/26 00:12:54;;;;;;;33.88;23.42;;;19.50;88.00;;;;;;1850881;77;21162;-71
2022/12/26 00:15:27;;;;;;;37.83;24.12;;;19.50;88.00;;;;;;1856094;77;21124;-71
2022/12/26 00:17:58;;;;;;;35.92;21.60;;;19.50;87.70;;;;;;1852775;76;21113;-71
2022/12/26 00:20:31;;;;;;;34.90;22.22;;;19.50;87.70;;;;;;1816029;78;21105;-72
2022/12/26 00:23:02;;;;;;;31.73;22.30;;;19.50;87.50;;;;;;1813292;77;21135;-71
2022/12/26 00:25:34;;;;;;;35.55;22.75;;;19.50;87.50;;;;;;1781548;79;21108;-72
2022/12/26 00:28:06;;;;;;;44.10;23.10;;;19.60;87.70;;;;;;1777722;79;21288;-69
2022/12/26 00:30:38;;;;;;;33.23;22.05;;;19.60;87.60;;;;;;1851927;76;21140;-72
2022/12/26 00:33:10;;;;;;;64.95;24.35;;;19.70;87.10;;;;;;1852786;76;21067;-72
2022/12/26 00:35:41;;;;;;;275.82;45.25;;;19.70;86.90;;;;;;1812455;78;21155;-71
2022/12/26 00:38:13;;;;;;;105.37;27.70;;;19.70;87.10;;;;;;1823064;78;21540;-70
2022/12/26 00:40:46;;;;;;;31.95;20.60;;;19.80;87.30;;;;;;1845441;77;21179;-71
2022/12/26 00:43:17;;;;;;;40.67;21.90;;;19.80;86.80;;;;;;1849625;76;21164;-69
2022/12/26 00:45:51;;;;;;;33.42;21.77;;;19.80;86.50;;;;;;1858334;76;21242;-69
2022/12/26 00:48:23;;;;;;;30.43;20.90;;;19.90;86.50;;;;;;1862692;76;21531;-71
2022/12/26 00:50:54;;;;;;;36.50;20.05;;;20.00;86.20;;;;;;1861016;76;21085;-71
2022/12/26 00:53:25;;;;;;;26.60;18.15;;;20.00;86.00;;;;;;1856646;76;21138;-71
2022/12/26 00:55:56;;;;;;;28.92;18.10;;;20.10;85.90;;;;;;1855546;76;21107;-68
2022/12/26 00:58:29;;;;;;;27.85;18.67;;;20.10;85.60;;;;;;1849450;76;21232;-68
2022/12/26 01:01:14;;;;;;;26.57;17.32;;;20.20;85.20;;;;;;1847239;77;21150;-71
2022/12/26 01:03:50;;;;;;;28.23;15.98;;;20.30;84.90;;;;;;1844261;76;21152;-71
2022/12/26 01:06:23;;;;;;;34.15;19.42;;;20.40;84.60;;;;;;1837613;77;21212;-71
2022/12/26 01:08:54;;;;;;;30.90;17.95;;;20.50;84.10;;;;;;1847114;76;21129;-71
2022/12/26 01:11:41;;;;;;;25.35;16.12;;;20.50;83.90;;;;;;1851854;76;21075;-71
2022/12/26 01:14:17;;;;;;;26.97;16.62;;;20.60;83.70;;;;;;1851837;76;21087;-71
2022/12/26 01:16:48;;;;;;;25.17;16.60;;;20.60;83.10;;;;;;1850698;76;21165;-70
2022/12/26 01:19:24;;;;;;;27.43;15.57;;;20.60;82.90;;;;;;1855284;76;21216;-70
2022/12/26 01:21:56;;;;;;;36.33;16.57;;;20.70;83.00;;;;;;1849735;76;21095;-71
2022/12/26 01:24:27;;;;;;;29.80;18.48;;;20.80;82.80;;;;;;1856554;76;21197;-71
2022/12/26 01:26:58;;;;;;;26.23;16.07;;;20.80;82.50;;;;;;1852089;76;21573;-71
2022/12/26 01:29:31;;;;;;;27.58;15.68;;;20.80;82.40;;;;;;1806547;77;21191;-71
2022/12/26 01:32:02;;;;;;;21.60;14.50;;;20.80;82.00;;;;;;1812976;78;21213;-71
2022/12/26 01:34:36;;;;;;;28.50;14.55;;;20.90;82.10;;;;;;1806187;78;21197;-71
2022/12/26 01:37:10;;;;;;;22.27;13.68;;;20.90;81.80;;;;;;1806398;78;21652;-71
2022/12/26 01:39:41;;;;;;;20.40;12.58;;;21.00;81.20;;;;;;1796016;78;21120;-71
2022/12/26 01:42:18;;;;;;;23.62;14.53;;;21.00;80.50;;;;;;1792400;78;21205;-71
2022/12/26 01:48:14;;;;;;;24.63;14.28;;;21.10;80.00;;;;;;1819783;77;21072;-70
2022/12/26 01:50:48;;;;;;;19.17;13.18;;;21.10;79.80;;;;;;1819287;77;21088;-71
2022/12/26 01:53:33;;;;;;;24.18;14.33;;;21.10;80.20;;;;;;1821309;77;21142;-71
2022/12/26 01:56:10;;;;;;;24.80;12.83;;;21.20;80.00;;;;;;1822444;77;21192;-69
2022/12/26 01:58:51;;;;;;;25.35;13.65;;;21.20;79.30;;;;;;1821747;77;21131;-70
2022/12/26 02:01:24;;;;;;;24.43;13.43;;;21.20;78.80;;;;;;1820621;77;21527;-70
2022/12/26 02:06:44;;;;;;;22.50;13.25;;;21.20;78.90;;;;;;1820328;77;21169;-71
2022/12/26 02:09:16;;;;;;;22.17;13.78;;;21.30;79.20;;;;;;1822336;77;21768;-71
2022/12/26 02:11:55;;;;;;;23.67;13.13;;;21.40;78.30;;;;;;1821917;77;21717;-69
2022/12/26 02:14:28;;;;;;;19.12;11.83;;;21.40;78.10;;;;;;1815423;77;21193;-71
2022/12/26 02:17:00;;;;;;;18.77;11.70;;;21.50;77.70;;;;;;1822512;77;21123;-70
2022/12/26 02:19:36;;;;;;;20.55;12.07;;;21.50;77.60;;;;;;1822734;77;21666;-71
2022/12/26 02:22:22;;;;;;;20.57;12.13;;;21.50;77.80;;;;;;1810952;77;21204;-71
2022/12/26 02:25:24;;;;;;;18.48;13.15;;;21.50;77.70;;;;;;1787045;78;21275;-72
2022/12/26 02:28:00;;;;;;;23.05;13.80;;;21.60;77.60;;;;;;1750804;80;21123;-71
2022/12/26 02:30:52;;;;;;;21.55;13.18;;;21.60;77.30;;;;;;1783698;77;21102;-70
2022/12/26 02:33:26;;;;;;;21.50;12.37;;;21.70;77.00;;;;;;1821463;77;21706;-71
2022/12/26 02:36:16;;;;;;;20.10;12.82;;;21.70;77.50;;;;;;1824339;77;21079;-72
2022/12/26 02:39:07;;;;;;;18.15;11.80;;;21.70;76.80;;;;;;1822061;77;21218;-71
2022/12/26 02:48:07;;;;;;;23.90;13.72;;;21.80;77.30;;;;;;1701845;80;21739;-71
2022/12/26 03:14:50;;;;;;;19.42;10.23;;;22.40;74.90;;;;;;1760183;79;21162;-71
2022/12/26 03:17:45;;;;;;;27.60;8.88;;;22.60;73.60;;;;;;1765054;80;21103;-70
2022/12/26 03:20:25;;;;;;;23.20;9.83;;;22.60;73.30;;;;;;1752514;80;21317;-70
2022/12/26 03:23:02;;;;;;;17.77;9.38;;;22.70;72.90;;;;;;1767072;80;21107;-70
2022/12/26 03:28:44;;;;;;;17.27;9.33;;;22.90;71.20;;;;;;1765751;79;21689;-69
2022/12/26 03:31:17;;;;;;;13.93;7.83;;;23.00;71.70;;;;;;1767031;79;21600;-72
2022/12/26 03:36:54;;;;;;;13.80;8.43;;;23.20;70.70;;;;;;1769353;80;21151;-71
2022/12/26 04:21:00;;;;;;;14.40;6.90;;;24.80;66.00;;;;;;1775329;78;21145;-73
2022/12/26 04:44:30;;;;;;;11.88;7.85;;;25.50;62.80;;;;;;1794380;78;21092;-71
2022/12/26 04:47:03;;;;;;;12.95;6.80;;;25.60;61.90;;;;;;1816115;77;21151;-72
2022/12/26 04:55:21;;;;;;;13.30;6.28;;;25.90;60.10;;;;;;1813045;78;21078;-73
2022/12/26 04:57:52;;;;;;;14.47;7.08;;;26.00;59.10;;;;;;1805874;78;21475;-72
2022/12/26 05:00:27;;;;;;;14.45;6.83;;;26.00;59.10;;;;;;1789827;78;21208;-73
2022/12/26 05:11:31;;;;;;;16.55;5.62;;;26.10;58.70;;;;;;1820241;76;21705;-72
2022/12/26 05:14:03;;;;;;;10.98;6.22;;;26.10;58.50;;;;;;1799207;78;21159;-73
2022/12/26 05:31:06;;;;;;;13.40;7.03;;;26.70;57.60;;;;;;1786100;78;21583;-73
2022/12/26 05:36:31;;;;;;;23.85;8.08;;;26.80;56.50;;;;;;1820678;77;21552;-73
2022/12/26 05:39:02;;;;;;;14.60;6.92;;;26.80;57.30;;;;;;1832686;76;21729;-73
2022/12/26 05:41:33;;;;;;;10.65;6.33;;;26.80;57.10;;;;;;1820911;76;21143;-72
2022/12/26 05:44:08;;;;;;;14.28;6.60;;;26.80;56.80;;;;;;1861090;75;21126;-72
2022/12/26 05:46:41;;;;;;;13.50;6.45;;;26.80;56.40;;;;;;1871602;75;21519;-71
2022/12/26 05:49:12;;;;;;;14.58;7.03;;;26.80;57.50;;;;;;1875010;75;21144;-72
2022/12/26 05:51:45;;;;;;;11.25;6.75;;;26.80;56.60;;;;;;1882367;74;21627;-72
2022/12/26 05:54:17;;;;;;;13.88;7.50;;;26.80;56.40;;;;;;1833963;76;21225;-72
2022/12/26 05:56:49;;;;;;;11.48;6.45;;;26.80;55.80;;;;;;1842798;76;21259;-72
2022/12/26 05:59:22;;;;;;;11.55;7.33;;;26.80;56.10;;;;;;1847878;76;21175;-70
2022/12/26 06:01:54;;;;;;;12.45;6.72;;;26.80;56.90;;;;;;1857842;75;21089;-71
2022/12/26 06:04:25;;;;;;;12.20;7.47;;;26.90;55.40;;;;;;1852019;75;21137;-71
2022/12/26 06:07:02;;;;;;;13.22;6.90;;;26.90;56.40;;;;;;1852653;76;21142;-72
2022/12/26 06:09:34;;;;;;;12.50;6.47;;;26.90;56.10;;;;;;1858847;75;21612;-72
2022/12/26 06:12:05;;;;;;;12.03;7.17;;;26.90;55.20;;;;;;1852530;76;21072;-71
2022/12/26 06:14:37;;;;;;;13.13;6.80;;;27.00;55.20;;;;;;1878834;74;21124;-71
2022/12/26 06:17:09;;;;;;;15.30;6.95;;;27.00;54.30;;;;;;1828532;77;21147;-71
2022/12/26 06:19:40;;;;;;;11.08;6.85;;;27.00;55.10;;;;;;1832972;77;21135;-72
2022/12/26 06:22:12;;;;;;;11.20;5.85;;;27.10;55.20;;;;;;1852165;75;21272;-70
2022/12/26 06:24:44;;;;;;;10.68;5.90;;;27.10;54.80;;;;;;1861203;75;21143;-72
2022/12/26 06:27:15;;;;;;;12.30;6.97;;;27.20;55.00;;;;;;1874784;74;21121;-72
2022/12/26 06:29:46;;;;;;;11.57;6.17;;;27.20;54.50;;;;;;1877460;75;21701;-71
2022/12/26 06:32:18;;;;;;;13.90;7.60;;;27.20;54.80;;;;;;1827009;77;21151;-71
2022/12/26 06:34:49;;;;;;;9.63;6.47;;;27.10;54.80;;;;;;1876352;75;21076;-71
2022/12/26 06:37:20;;;;;;;8.60;6.30;;;27.10;54.20;;;;;;1875495;74;21528;-73
2022/12/26 06:39:52;;;;;;;13.70;6.30;;;27.10;55.10;;;;;;1877347;74;21197;-72
2022/12/26 06:42:26;;;;;;;10.80;6.30;;;27.10;55.10;;;;;;1881895;75;21099;-71
2022/12/26 06:44:58;;;;;;;11.80;6.05;;;27.10;53.70;;;;;;1878014;74;21681;-71
2022/12/26 06:47:30;;;;;;;10.55;6.08;;;27.20;53.50;;;;;;1881045;74;21634;-76
2022/12/26 06:50:02;;;;;;;10.98;5.95;;;27.30;53.90;;;;;;1874781;75;21594;-72
2022/12/26 06:52:33;;;;;;;10.00;5.92;;;27.30;54.50;;;;;;1872488;74;21095;-73
2022/12/26 06:55:04;;;;;;;12.40;5.70;;;27.40;52.70;;;;;;1877222;74;21804;-71
2022/12/26 06:57:36;;;;;;;9.40;5.35;;;27.40;52.70;;;;;;1875285;74;21239;-73
2022/12/26 07:00:08;;;;;;;10.28;5.95;;;27.60;51.70;;;;;;1878866;74;21160;-73
2022/12/26 07:02:39;;;;;;;11.25;5.42;;;27.60;52.40;;;;;;1874581;74;21193;-72
2022/12/26 07:05:10;;;;;;;11.50;6.15;;;27.60;52.10;;;;;;1875920;74;22286;-72
2022/12/26 07:07:42;;;;;;;12.45;6.12;;;27.70;53.30;;;;;;1878433;74;21100;-72
2022/12/26 07:10:16;;;;;;;11.12;6.15;;;27.70;51.20;;;;;;1879085;75;21106;-71
2022/12/26 07:12:50;;;;;;;11.03;6.05;;;27.70;52.10;;;;;;1879195;75;21697;-72
2022/12/26 07:15:20;;;;;;;10.15;5.80;;;27.70;51.50;;;;;;1874694;74;21665;-73
2022/12/26 07:17:52;;;;;;;9.58;6.28;;;27.80;51.50;;;;;;1788047;78;21105;-72
2022/12/26 07:20:24;;;;;;;10.05;6.08;;;27.80;53.50;;;;;;1838186;76;21135;-73
2022/12/26 07:22:56;;;;;;;11.73;6.72;;;27.80;52.50;;;;;;1842852;76;21146;-72
2022/12/26 07:25:28;;;;;;;11.57;6.10;;;27.80;51.00;;;;;;1871102;75;21583;-73
2022/12/26 07:27:59;;;;;;;10.28;7.10;;;27.80;50.80;;;;;;1873509;75;21594;-73
2022/12/26 07:30:30;;;;;;;9.35;6.20;;;27.80;50.30;;;;;;1868944;75;21078;-73
2022/12/26 07:33:01;;;;;;;9.05;6.05;;;27.80;49.90;;;;;;1876006;74;21104;-71
2022/12/26 07:35:33;;;;;;;8.75;6.25;;;27.80;49.30;;;;;;1872753;74;21126;-72
2022/12/26 07:38:04;;;;;;;9.40;6.12;;;27.80;50.00;;;;;;1882417;74;21675;-72
2022/12/26 07:40:35;;;;;;;12.15;6.08;;;27.70;50.20;;;;;;1877828;75;21141;-72
2022/12/26 07:43:10;;;;;;;12.00;6.28;;;27.70;50.60;;;;;;1877333;74;21168;-72
2022/12/26 07:45:43;;;;;;;10.08;6.60;;;27.70;50.10;;;;;;1878240;74;21193;-72
2022/12/26 07:48:14;;;;;;;11.48;6.08;;;27.70;50.20;;;;;;1841746;76;21122;-72
2022/12/26 07:50:46;;;;;;;13.35;7.00;;;27.70;50.70;;;;;;1873721;76;21551;-72
2022/12/26 07:53:17;;;;;;;10.28;6.28;;;27.70;51.70;;;;;;1873014;75;21079;-71
2022/12/26 07:55:48;;;;;;;10.65;6.37;;;27.70;51.10;;;;;;1872971;76;21174;-71
2022/12/26 07:58:27;;;;;;;10.68;5.95;;;27.70;51.20;;;;;;1883679;74;21239;-72
2022/12/26 08:01:02;;;;;;;13.32;6.92;;;27.70;51.90;;;;;;1867527;74;21651;-72
2022/12/26 08:03:34;;;;;;;12.05;6.80;;;27.70;51.20;;;;;;1850494;76;21149;-72
2022/12/26 08:06:05;;;;;;;12.10;6.75;;;27.60;51.20;;;;;;1879660;75;21244;-72
2022/12/26 08:08:36;;;;;;;12.90;6.22;;;27.70;51.20;;;;;;1831103;77;21141;-72
2022/12/26 08:11:08;;;;;;;10.53;7.35;;;27.60;51.10;;;;;;1829433;76;21287;-72
2022/12/26 08:13:39;;;;;;;12.47;7.40;;;27.60;50.90;;;;;;1803487;77;21194;-72
2022/12/26 08:16:13;;;;;;;10.43;6.60;;;27.60;51.20;;;;;;1846840;77;21108;-73
2022/12/26 08:18:45;;;;;;;11.22;7.10;;;27.60;51.50;;;;;;1831008;77;21197;-71
2022/12/26 08:21:17;;;;;;;11.22;6.78;;;27.50;50.90;;;;;;1844938;77;21118;-72
2022/12/26 08:23:48;;;;;;;12.95;7.70;;;27.50;51.10;;;;;;1845477;77;21126;-71
2022/12/26 08:26:21;;;;;;;12.90;6.97;;;27.50;50.60;;;;;;1834621;77;21160;-71
2022/12/26 08:28:53;;;;;;;11.30;6.55;;;27.50;51.20;;;;;;1824085;76;21201;-72
2022/12/26 08:31:24;;;;;;;13.88;7.62;;;27.50;51.20;;;;;;1810073;78;21121;-71
2022/12/26 08:33:58;;;;;;;11.45;7.20;;;27.50;51.10;;;;;;1813296;78;21121;-72
2022/12/26 08:36:29;;;;;;;13.13;7.03;;;27.40;51.20;;;;;;1816139;77;21298;-72
2022/12/26 08:39:00;;;;;;;10.80;6.40;;;27.40;51.90;;;;;;1814752;78;21124;-74
2022/12/26 08:41:31;;;;;;;13.32;7.10;;;27.50;51.80;;;;;;1826727;77;21176;-72
2022/12/26 08:44:03;;;;;;;9.63;6.33;;;27.40;51.80;;;;;;1835408;76;21159;-73
2022/12/26 08:46:35;;;;;;;13.48;7.53;;;27.40;51.60;;;;;;1835082;77;21162;-73
2022/12/26 08:49:06;;;;;;;12.37;6.72;;;27.50;51.60;;;;;;1834662;76;21176;-73
2022/12/26 08:51:38;;;;;;;11.40;6.55;;;27.40;51.90;;;;;;1838520;76;21071;-70
2022/12/26 08:54:09;;;;;;;8.93;7.03;;;27.40;51.40;;;;;;1837398;76;21810;-72
2022/12/26 08:56:42;;;;;;;11.25;6.45;;;27.40;52.00;;;;;;1842000;77;21524;-73
2022/12/26 08:59:15;;;;;;;10.28;6.28;;;27.30;52.00;;;;;;1841985;77;21704;-71
2022/12/26 09:01:46;;;;;;;9.28;6.00;;;27.30;52.10;;;;;;1842221;77;21183;-71
2022/12/26 09:04:18;;;;;;;9.80;6.17;;;27.30;51.10;;;;;;1837240;77;21280;-73
2022/12/26 09:06:49;;;;;;;15.90;5.67;;;27.30;51.00;;;;;;1838001;76;21720;-73
2022/12/26 09:09:20;;;;;;;13.60;5.72;;;27.30;51.60;;;;;;1821065;77;21115;-72
2022/12/26 09:11:51;;;;;;;11.20;6.28;;;27.30;51.50;;;;;;1842726;76;21650;-73
2022/12/26 09:14:23;;;;;;;11.15;6.17;;;27.20;51.30;;;;;;1838182;76;21057;-72
2022/12/26 09:16:55;;;;;;;11.20;6.42;;;27.20;52.10;;;;;;1837574;76;21083;-72
2022/12/26 09:19:28;;;;;;;10.72;5.80;;;27.20;51.00;;;;;;1838507;76;21723;-70
2022/12/26 09:24:47;;;;;;;11.70;6.22;;;27.20;50.70;;;;;;1840782;76;21151;-72
2022/12/26 09:27:18;;;;;;;10.58;6.80;;;27.10;51.00;;;;;;1816294;78;21188;-71
2022/12/26 09:29:49;;;;;;;12.35;7.17;;;27.10;50.70;;;;;;1815718;76;21157;-73
2022/12/26 09:32:20;;;;;;;10.43;6.35;;;27.10;51.00;;;;;;1829596;76;21193;-72
2022/12/26 09:34:51;;;;;;;12.37;6.90;;;27.10;50.80;;;;;;1831910;77;21107;-72
2022/12/26 09:37:22;;;;;;;10.60;7.17;;;27.10;50.30;;;;;;1815091;76;21624;-72
2022/12/26 09:39:53;;;;;;;10.90;6.83;;;27.00;50.30;;;;;;1832566;76;21768;-71
2022/12/26 09:42:48;;;;;;;11.38;7.12;;;27.00;50.00;;;;;;1873257;75;21190;-71
2022/12/26 09:45:21;;;;;;;13.32;7.50;;;27.00;50.10;;;;;;1870937;75;21184;-72
2022/12/26 09:47:58;;;;;;;13.72;7.10;;;26.90;50.40;;;;;;1872117;75;21223;-71
2022/12/26 09:50:31;;;;;;;12.55;7.17;;;26.90;50.30;;;;;;1879389;74;21182;-73
2022/12/26 09:53:21;;;;;;;14.07;7.17;;;26.90;50.50;;;;;;1820488;77;21177;-72
2022/12/26 09:55:54;;;;;;;13.28;7.47;;;26.80;50.90;;;;;;1823944;77;21190;-71
2022/12/26 09:58:49;;;;;;;12.13;7.53;;;26.80;50.80;;;;;;1804642;78;21163;-72
2022/12/26 10:01:22;;;;;;;11.97;8.05;;;26.70;51.00;;;;;;1861250;75;21252;-72
2022/12/26 10:03:56;;;;;;;16.52;7.50;;;26.70;51.40;;;;;;1827829;77;21233;-73
2022/12/26 10:06:29;;;;;;;15.90;8.55;;;26.70;51.30;;;;;;1812584;77;21121;-72
2022/12/26 10:09:29;;;;;;;14.83;7.85;;;26.60;51.40;;;;;;1799602;78;21108;-71
2022/12/26 10:12:02;;;;;;;15.72;8.85;;;26.60;52.00;;;;;;1795187;77;21763;-72
2022/12/26 10:14:42;;;;;;;14.43;8.95;;;26.50;52.00;;;;;;1787245;78;21263;-69
2022/12/26 10:17:30;;;;;;;18.37;8.88;;;26.50;52.20;;;;;;1863249;75;21137;-69
2022/12/26 10:20:09;;;;;;;13.00;8.85;;;26.50;52.60;;;;;;1842255;76;21204;-70
2022/12/26 10:23:01;;;;;;;18.37;9.15;;;26.40;53.40;;;;;;1842957;76;21677;-71
2022/12/26 10:25:43;;;;;;;18.12;9.73;;;26.40;52.90;;;;;;1837243;76;21083;-71
2022/12/26 10:28:23;;;;;;;16.05;9.55;;;26.30;53.00;;;;;;1801787;77;22066;-71
2022/12/26 10:30:58;;;;;;;15.38;8.93;;;26.30;53.30;;;;;;1809728;77;21163;-71
2022/12/26 10:33:38;;;;;;;12.33;8.80;;;26.20;53.40;;;;;;1790986;78;21138;-71
2022/12/26 10:36:31;;;;;;;15.00;8.95;;;26.20;53.70;;;;;;1811844;76;21083;-70
2022/12/26 10:39:04;;;;;;;15.30;8.68;;;26.10;53.90;;;;;;1854043;76;21102;-70
2022/12/26 10:41:38;;;;;;;14.80;8.73;;;26.10;54.00;;;;;;1853536;76;21272;-71
2022/12/26 10:44:12;;;;;;;16.25;9.48;;;26.10;54.20;;;;;;1849468;76;21257;-69
2022/12/26 10:46:45;;;;;;;15.00;9.25;;;26.00;54.50;;;;;;1837737;77;21220;-70
2022/12/26 10:49:19;;;;;;;19.67;10.70;;;26.00;54.60;;;;;;1839710;77;21161;-70
2022/12/26 10:51:53;;;;;;;17.37;10.50;;;25.90;54.80;;;;;;1842831;77;21099;-71
2022/12/26 10:54:28;;;;;;;22.22;12.68;;;25.90;55.70;;;;;;1836486;76;21164;-70
2022/12/26 10:57:00;;;;;;;23.35;14.05;;;25.90;55.10;;;;;;1841220;76;21099;-71
2022/12/26 10:59:40;;;;;;;28.17;16.23;;;25.80;55.30;;;;;;1874691;75;21181;-70
2022/12/26 11:02:31;;;;;;;28.60;16.45;;;25.80;55.40;;;;;;1871577;75;21619;-72
2022/12/26 11:05:10;;;;;;;28.30;15.60;;;25.80;55.60;;;;;;1817617;77;21162;-70
2022/12/26 11:07:45;;;;;;;33.95;19.60;;;25.80;55.80;;;;;;1810497;77;21326;-71
2022/12/26 11:10:19;;;;;;;31.52;18.70;;;25.70;55.90;;;;;;1788586;77;21251;-71
2022/12/26 11:12:58;;;;;;;25.90;17.23;;;25.70;56.10;;;;;;1816963;77;21103;-70
2022/12/26 11:15:41;;;;;;;27.60;18.10;;;25.70;56.10;;;;;;1785573;78;21143;-70
2022/12/26 11:18:24;;;;;;;29.70;18.35;;;25.70;56.20;;;;;;1800191;78;21318;-70
2022/12/26 11:20:55;;;;;;;34.20;18.75;;;25.60;56.40;;;;;;1816411;77;21118;-71
2022/12/26 11:23:30;;;;;;;30.25;19.95;;;25.60;56.60;;;;;;1815721;77;21169;-70
2022/12/26 11:26:02;;;;;;;34.23;20.00;;;25.60;56.60;;;;;;1825851;77;21098;-70
2022/12/26 11:28:37;;;;;;;32.83;20.23;;;25.60;56.90;;;;;;1819301;78;21123;-71
2022/12/26 11:31:11;;;;;;;31.05;20.10;;;25.60;56.90;;;;;;1810525;77;21183;-71
2022/12/26 11:33:49;;;;;;;35.63;18.95;;;25.50;57.10;;;;;;1831004;77;21187;-70
2022/12/26 11:36:23;;;;;;;33.67;19.67;;;25.50;57.30;;;;;;1797352;77;21129;-71
2022/12/26 11:38:57;;;;;;;36.15;20.92;;;25.50;57.40;;;;;;1796789;78;21662;-71
2022/12/26 11:41:39;;;;;;;35.78;21.93;;;25.40;57.30;;;;;;1793507;78;21165;-70
2022/12/26 11:44:12;;;;;;;36.10;22.35;;;25.40;57.40;;;;;;1819111;77;21154;-69
2022/12/26 11:46:53;;;;;;;37.48;22.05;;;25.40;57.40;;;;;;1823999;77;21079;-70
2022/12/26 11:49:30;;;;;;;33.65;22.25;;;25.30;57.50;;;;;;1775877;79;21175;-71
2022/12/26 11:52:04;;;;;;;35.83;22.42;;;25.30;57.60;;;;;;1783506;79;21648;-70
2022/12/26 11:54:38;;;;;;;37.73;19.98;;;25.30;57.60;;;;;;1766345;80;21155;-70
2022/12/26 11:57:19;;;;;;;40.75;23.92;;;25.30;57.80;;;;;;1763555;78;21218;-84
2022/12/26 11:59:52;;;;;;;41.77;28.07;;;25.30;57.90;;;;;;1765941;79;21205;-85
2022/12/26 12:02:26;;;;;;;43.80;25.37;;;25.30;58.20;;;;;;1779305;79;21074;-86
2022/12/26 12:05:05;;;;;;;37.70;22.77;;;25.20;58.20;;;;;;1782294;79;21155;-89
2022/12/26 12:07:57;;;;;;;34.50;22.15;;;25.30;58.40;;;;;;1771452;79;21677;-85
2022/12/26 12:10:57;;;;;;;35.92;21.68;;;25.20;58.40;;;;;;1745856;80;21188;-84
2022/12/26 12:13:47;;;;;;;35.03;20.23;;;25.20;58.60;;;;;;1764451;80;21085;-85
2022/12/26 12:16:31;;;;;;;40.28;23.55;;;25.20;58.60;;;;;;1778005;80;21174;-87
2022/12/26 12:19:29;;;;;;;34.75;22.13;;;25.20;59.40;;;;;;1714881;81;21189;-87
2022/12/26 12:22:12;;;;;;;33.70;21.45;;;25.20;58.70;;;;;;1807701;78;21106;-88
2022/12/26 12:24:58;;;;;;;31.27;20.43;;;25.10;58.70;;;;;;1807484;78;21114;-86
2022/12/26 12:27:35;;;;;;;32.17;18.62;;;25.10;58.70;;;;;;1800393;79;21140;-85
2022/12/26 12:30:30;;;;;;;26.40;17.80;;;25.10;58.70;;;;;;1798602;79;21154;-86
2022/12/26 12:33:23;;;;;;;28.83;17.27;;;25.10;58.70;;;;;;1772544;79;21157;-84
2022/12/26 12:36:03;;;;;;;25.77;17.65;;;25.10;58.70;;;;;;1811703;77;21307;-86
2022/12/26 12:38:39;;;;;;;27.62;17.27;;;25.10;58.70;;;;;;1808538;78;21063;-86
2022/12/26 12:41:31;;;;;;;28.70;17.77;;;25.00;58.90;;;;;;1818587;78;21150;-86
2022/12/26 12:44:26;;;;;;;29.37;17.90;;;25.00;59.00;;;;;;1794707;79;21083;-86
2022/12/26 12:47:15;;;;;;;31.62;17.10;;;25.00;59.10;;;;;;1773149;81;21133;-86
2022/12/26 12:50:06;;;;;;;31.27;18.55;;;25.00;59.10;;;;;;1795815;79;21154;-85
2022/12/26 12:52:46;;;;;;;33.48;20.27;;;24.90;59.10;;;;;;1776964;79;21193;-86
2022/12/26 12:55:32;;;;;;;36.63;19.75;;;24.90;59.10;;;;;;1788401;79;21771;-85
2022/12/26 12:58:15;;;;;;;31.07;19.70;;;24.90;59.10;;;;;;1778973;79;21229;-86
2022/12/26 13:00:48;;;;;;;31.30;17.90;;;24.90;59.10;;;;;;1763427;80;21160;-85
2022/12/26 13:03:22;;;;;;;33.92;19.60;;;24.80;59.30;;;;;;1818592;78;21164;-85
2022/12/26 13:06:14;;;;;;;31.05;18.75;;;24.80;59.40;;;;;;1777670;78;21107;-85
2022/12/26 13:08:53;;;;;;;30.48;20.48;;;24.80;59.40;;;;;;1772894;80;21087;-86
2022/12/26 13:11:42;;;;;;;37.42;22.05;;;24.80;59.40;;;;;;1769755;80;21154;-85
2022/12/26 13:14:16;;;;;;;36.73;21.10;;;24.80;59.60;;;;;;1774791;80;21123;-85
2022/12/26 13:16:53;;;;;;;36.15;21.68;;;24.70;59.50;;;;;;1773005;80;21685;-85
2022/12/26 13:19:29;;;;;;;39.75;23.20;;;24.70;59.60;;;;;;1765707;80;21578;-85
2022/12/26 13:22:03;;;;;;;35.20;21.02;;;24.60;59.80;;;;;;1773464;80;21194;-86
2022/12/26 13:24:44;;;;;;;39.40;22.30;;;24.60;60.00;;;;;;1780474;80;21149;-85
2022/12/26 13:27:21;;;;;;;42.43;22.13;;;24.60;60.10;;;;;;1706574;83;21317;-85
2022/12/26 13:30:17;;;;;;;37.28;21.15;;;24.60;60.40;;;;;;1753037;81;21096;-86
2022/12/26 13:32:51;;;;;;;33.02;20.60;;;24.60;60.50;;;;;;1768944;80;21115;-85
2022/12/26 13:35:53;;;;;;;34.73;21.15;;;24.50;60.60;;;;;;1764703;80;21166;-84
2022/12/26 13:38:28;;;;;;;32.00;20.60;;;24.50;60.60;;;;;;1756881;80;21205;-85
2022/12/26 13:43:56;;;;;;;38.10;21.77;;;24.40;60.50;;;;;;1720049;80;21171;-87
2022/12/26 13:46:47;;;;;;;38.48;21.52;;;24.40;60.60;;;;;;1762862;80;21116;-86
2022/12/26 13:49:38;;;;;;;39.67;21.97;;;24.40;60.60;;;;;;1769298;79;21693;-86
2022/12/26 13:52:18;;;;;;;42.27;21.65;;;24.40;60.70;;;;;;1763000;80;21140;-85
2022/12/26 13:54:52;;;;;;;41.37;23.30;;;24.30;60.90;;;;;;1754063;80;21126;-85
2022/12/26 13:57:41;;;;;;;50.65;23.35;;;24.30;60.90;;;;;;1761501;80;21172;-86
2022/12/26 14:00:21;;;;;;;35.43;21.27;;;24.30;61.00;;;;;;1768188;80;21169;-85
2022/12/26 14:03:14;;;;;;;37.45;22.40;;;24.30;61.10;;;;;;1771078;80;21225;-85
2022/12/26 14:06:01;;;;;;;38.70;21.70;;;24.20;61.00;;;;;;1776243;79;21106;-85
2022/12/26 14:08:49;;;;;;;33.07;21.53;;;24.20;61.10;;;;;;1773825;78;21621;-85
2022/12/26 14:11:24;;;;;;;32.80;20.75;;;24.20;61.20;;;;;;1786844;79;21229;-85
2022/12/26 14:14:13;;;;;;;33.55;20.50;;;24.20;61.40;;;;;;1730226;82;21167;-86
2022/12/26 14:16:54;;;;;;;35.65;21.40;;;24.20;61.30;;;;;;1745792;82;21156;-86
2022/12/26 14:19:52;;;;;;;33.90;20.95;;;24.20;61.40;;;;;;1718847;82;21234;-87
2022/12/26 14:22:32;;;;;;;39.53;21.12;;;24.20;61.40;;;;;;1743131;81;21174;-87
2022/12/26 14:25:27;;;;;;;38.10;21.15;;;24.20;61.50;;;;;;1737636;82;21107;-85
2022/12/26 14:28:15;;;;;;;36.33;22.25;;;24.10;61.60;;;;;;1768229;81;21150;-85
2022/12/26 14:30:54;;;;;;;40.65;22.93;;;24.10;61.60;;;;;;1760228;79;21163;-84
2022/12/26 14:33:28;;;;;;;38.02;22.30;;;24.10;61.90;;;;;;1744232;81;21103;-84
2022/12/26 14:36:42;;;;;;;37.98;22.07;;;24.00;61.90;;;;;;1741316;82;21194;-85
2022/12/26 14:39:19;;;;;;;36.53;21.85;;;24.00;61.90;;;;;;1711937;82;21169;-84
2022/12/26 14:45:30;;;;;;;40.00;24.82;;;24.00;62.20;;;;;;1745542;81;21203;-86
2022/12/26 14:48:04;;;;;;;36.55;23.38;;;23.90;62.50;;;;;;1735140;80;21187;-85
2022/12/26 14:50:56;;;;;;;37.53;22.62;;;23.90;62.60;;;;;;1793808;79;21087;-85
2022/12/26 14:53:36;;;;;;;34.33;22.17;;;23.90;62.60;;;;;;1766109;81;21162;-85
2022/12/26 14:56:21;;;;;;;38.65;22.67;;;23.90;62.90;;;;;;1781287;80;21651;-86
2022/12/26 14:58:56;;;;;;;38.88;22.80;;;23.90;63.10;;;;;;1740963;81;21168;-85
2022/12/26 15:01:32;;;;;;;34.60;20.57;;;23.80;63.00;;;;;;1803065;79;21639;-85
2022/12/26 15:04:11;;;;;;;32.40;21.60;;;23.80;64.00;;;;;;1745491;81;21116;-85
2022/12/26 15:07:10;;;;;;;33.53;22.13;;;23.80;63.10;;;;;;1730315;82;21204;-85
2022/12/26 15:10:09;;;;;;;36.05;22.67;;;23.80;63.20;;;;;;1729182;82;21101;-85
2022/12/26 15:12:57;;;;;;;34.25;21.60;;;23.80;63.10;;;;;;1733127;82;21719;-86
2022/12/26 15:16:01;;;;;;;41.00;22.60;;;23.80;63.20;;;;;;1737593;82;21145;-86
2022/12/26 15:19:14;;;;;;;33.10;21.82;;;23.70;63.40;;;;;;1651761;86;21879;-86
2022/12/26 15:21:51;;;;;;;39.55;22.20;;;23.80;63.60;;;;;;1661465;85;21309;-85
2022/12/26 15:24:45;;;;;;;34.58;21.97;;;23.70;63.60;;;;;;1710549;83;21129;-86
2022/12/26 15:27:35;;;;;;;32.40;21.00;;;23.70;63.90;;;;;;1733173;81;21192;-85
2022/12/26 15:30:24;;;;;;;38.00;22.50;;;23.70;64.20;;;;;;1732550;79;21177;-85
2022/12/26 15:33:16;;;;;;;41.42;23.38;;;23.70;64.30;;;;;;1727246;80;21186;-84
2022/12/26 15:36:06;;;;;;;45.73;23.98;;;23.60;64.50;;;;;;1727881;82;21307;-85
2022/12/26 15:38:49;;;;;;;43.40;25.30;;;23.60;64.80;;;;;;1731805;82;21176;-84
2022/12/26 15:41:41;;;;;;;40.80;25.57;;;23.50;65.00;;;;;;1726943;82;21176;-85
2022/12/26 15:44:20;;;;;;;41.48;25.30;;;23.50;65.40;;;;;;1736654;81;21106;-85
2022/12/26 15:47:11;;;;;;;40.45;25.52;;;23.50;65.60;;;;;;1715622;83;21133;-84